X  Schließen METAR Luftfahrt Wetterdaten        LGTS Thessaloniki Macedonia International
Temperatur
16°C Temperatur
8°C Taupunkt
59% Feuchtigkeit



Wind
2 M/S
5 MPS
7 KM/S
4 KTS



150°
SSO
Aktuelle Wetterlage

Partly Cloudy Teilweise bewölkt
Luftdruck 1015 (hPa) - 29.97 (inHg)
Sichtweite 6 (Meile) - 10 (Km)
Flughafen
Flughafen Code LGTS

Position : Thessaloniki Macedonia International
Entfernung: 85 (Km)

Metar:
METAR LGTS 292350Z 15004KT 9999 SCT020 16/08 Q1015 NOSIG

Zeit: 01-03-2024 01:50 EET